sensor_id;sensor_type;location;lat;lon;timestamp;P1;durP1;ratioP1;P2;durP2;ratioP2
11418;SDS011;32800;44.876;13.880;2022-12-18T00:01:50;2.27;;;2.00;;
11418;SDS011;32800;44.876;13.880;2022-12-18T00:04:21;2.47;;;2.27;;
11418;SDS011;32800;44.876;13.880;2022-12-18T00:06:47;2.13;;;2.00;;
11418;SDS011;32800;44.876;13.880;2022-12-18T00:09:13;2.43;;;2.23;;
11418;SDS011;32800;44.876;13.880;2022-12-18T00:11:38;2.30;;;2.10;;
11418;SDS011;32800;44.876;13.880;2022-12-18T00:14:04;2.57;;;2.10;;
11418;SDS011;32800;44.876;13.880;2022-12-18T00:16:29;2.23;;;2.03;;
11418;SDS011;32800;44.876;13.880;2022-12-18T00:18:58;2.23;;;2.00;;
11418;SDS011;32800;44.876;13.880;2022-12-18T00:21:24;2.40;;;2.20;;
11418;SDS011;32800;44.876;13.880;2022-12-18T00:23:50;2.37;;;2.17;;
11418;SDS011;32800;44.876;13.880;2022-12-18T00:26:17;2.27;;;2.07;;
11418;SDS011;32800;44.876;13.880;2022-12-18T00:28:50;2.27;;;2.07;;
11418;SDS011;32800;44.876;13.880;2022-12-18T00:31:18;2.00;;;1.80;;
11418;SDS011;32800;44.876;13.880;2022-12-18T00:33:45;2.30;;;2.10;;
11418;SDS011;32800;44.876;13.880;2022-12-18T00:36:13;2.27;;;2.07;;
11418;SDS011;32800;44.876;13.880;2022-12-18T00:38:40;2.43;;;2.00;;
11418;SDS011;32800;44.876;13.880;2022-12-18T00:41:06;2.17;;;1.97;;
11418;SDS011;32800;44.876;13.880;2022-12-18T00:43:34;2.27;;;2.00;;
11418;SDS011;32800;44.876;13.880;2022-12-18T00:46:00;2.23;;;2.03;;
11418;SDS011;32800;44.876;13.880;2022-12-18T00:48:26;2.40;;;2.13;;
11418;SDS011;32800;44.876;13.880;2022-12-18T00:50:51;2.10;;;1.90;;
11418;SDS011;32800;44.876;13.880;2022-12-18T00:53:17;1.87;;;1.73;;
11418;SDS011;32800;44.876;13.880;2022-12-18T00:55:43;2.30;;;2.10;;
11418;SDS011;32800;44.876;13.880;2022-12-18T00:58:09;2.33;;;2.13;;
11418;SDS011;32800;44.876;13.880;2022-12-18T01:00:35;2.17;;;1.90;;
11418;SDS011;32800;44.876;13.880;2022-12-18T01:03:01;2.53;;;1.90;;
11418;SDS011;32800;44.876;13.880;2022-12-18T01:05:27;2.30;;;2.10;;
11418;SDS011;32800;44.876;13.880;2022-12-18T01:07:53;2.73;;;2.03;;
11418;SDS011;32800;44.876;13.880;2022-12-18T01:10:19;2.03;;;1.83;;
11418;SDS011;32800;44.876;13.880;2022-12-18T01:12:44;3.43;;;2.00;;
11418;SDS011;32800;44.876;13.880;2022-12-18T01:15:10;2.10;;;1.90;;
11418;SDS011;32800;44.876;13.880;2022-12-18T01:17:37;3.63;;;2.20;;
11418;SDS011;32800;44.876;13.880;2022-12-18T01:20:02;2.17;;;1.97;;
11418;SDS011;32800;44.876;13.880;2022-12-18T01:22:28;3.70;;;2.10;;
11418;SDS011;32800;44.876;13.880;2022-12-18T01:24:54;3.53;;;1.97;;
11418;SDS011;32800;44.876;13.880;2022-12-18T01:27:19;2.63;;;2.10;;
11418;SDS011;32800;44.876;13.880;2022-12-18T01:29:45;2.70;;;1.93;;
11418;SDS011;32800;44.876;13.880;2022-12-18T01:32:10;2.00;;;1.80;;
11418;SDS011;32800;44.876;13.880;2022-12-18T01:34:36;1.83;;;1.70;;
11418;SDS011;32800;44.876;13.880;2022-12-18T01:37:02;2.30;;;2.10;;
11418;SDS011;32800;44.876;13.880;2022-12-18T01:39:29;3.30;;;1.70;;
11418;SDS011;32800;44.876;13.880;2022-12-18T01:41:54;2.37;;;2.17;;
11418;SDS011;32800;44.876;13.880;2022-12-18T01:50:02;2.20;;;2.00;;
11418;SDS011;32800;44.876;13.880;2022-12-18T01:52:31;2.27;;;2.07;;
11418;SDS011;32800;44.876;13.880;2022-12-18T01:54:57;6.67;;;2.10;;
11418;SDS011;32800;44.876;13.880;2022-12-18T01:57:23;2.20;;;2.00;;
11418;SDS011;32800;44.876;13.880;2022-12-18T01:59:49;2.43;;;2.00;;
11418;SDS011;32800;44.876;13.880;2022-12-18T02:02:18;2.33;;;2.10;;
11418;SDS011;32800;44.876;13.880;2022-12-18T02:04:44;2.37;;;2.10;;
11418;SDS011;32800;44.876;13.880;2022-12-18T02:09:48;1.77;;;1.67;;
11418;SDS011;32800;44.876;13.880;2022-12-18T02:12:17;2.93;;;2.10;;
11418;SDS011;32800;44.876;13.880;2022-12-18T02:14:48;2.30;;;1.90;;
11418;SDS011;32800;44.876;13.880;2022-12-18T02:17:43;2.43;;;2.00;;
11418;SDS011;32800;44.876;13.880;2022-12-18T02:20:44;2.30;;;2.10;;
11418;SDS011;32800;44.876;13.880;2022-12-18T02:26:18;2.30;;;2.10;;
11418;SDS011;32800;44.876;13.880;2022-12-18T02:28:49;2.30;;;2.10;;
11418;SDS011;32800;44.876;13.880;2022-12-18T02:31:21;2.20;;;1.93;;
11418;SDS011;32800;44.876;13.880;2022-12-18T02:33:50;2.20;;;1.80;;
11418;SDS011;32800;44.876;13.880;2022-12-18T02:36:17;2.00;;;1.90;;
11418;SDS011;32800;44.876;13.880;2022-12-18T02:38:43;2.40;;;2.20;;
11418;SDS011;32800;44.876;13.880;2022-12-18T02:41:10;2.67;;;1.80;;
11418;SDS011;32800;44.876;13.880;2022-12-18T02:43:35;3.27;;;2.07;;
11418;SDS011;32800;44.876;13.880;2022-12-18T02:46:01;2.57;;;2.17;;
11418;SDS011;32800;44.876;13.880;2022-12-18T02:49:16;2.07;;;1.97;;
11418;SDS011;32800;44.876;13.880;2022-12-18T02:51:50;2.20;;;2.00;;
11418;SDS011;32800;44.876;13.880;2022-12-18T03:00:06;2.60;;;2.10;;
11418;SDS011;32800;44.876;13.880;2022-12-18T03:05:04;2.50;;;2.10;;
11418;SDS011;32800;44.876;13.880;2022-12-18T03:10:32;2.33;;;2.07;;
11418;SDS011;32800;44.876;13.880;2022-12-18T03:13:44;2.93;;;1.80;;
11418;SDS011;32800;44.876;13.880;2022-12-18T03:16:09;3.77;;;2.07;;
11418;SDS011;32800;44.876;13.880;2022-12-18T03:18:38;2.53;;;2.30;;
11418;SDS011;32800;44.876;13.880;2022-12-18T03:21:05;2.83;;;1.80;;
11418;SDS011;32800;44.876;13.880;2022-12-18T03:23:36;1.80;;;1.70;;
11418;SDS011;32800;44.876;13.880;2022-12-18T03:26:09;2.43;;;2.20;;
11418;SDS011;32800;44.876;13.880;2022-12-18T03:28:39;2.20;;;2.00;;
11418;SDS011;32800;44.876;13.880;2022-12-18T03:31:10;2.23;;;2.03;;
11418;SDS011;32800;44.876;13.880;2022-12-18T03:36:24;2.33;;;2.00;;
11418;SDS011;32800;44.876;13.880;2022-12-18T03:38:50;2.57;;;2.00;;
11418;SDS011;32800;44.876;13.880;2022-12-18T03:43:51;1.80;;;1.70;;
11418;SDS011;32800;44.876;13.880;2022-12-18T03:52:14;2.37;;;2.17;;
11418;SDS011;32800;44.876;13.880;2022-12-18T03:54:43;2.17;;;1.90;;
11418;SDS011;32800;44.876;13.880;2022-12-18T03:57:11;2.20;;;2.00;;
11418;SDS011;32800;44.876;13.880;2022-12-18T03:59:40;1.87;;;1.77;;
11418;SDS011;32800;44.876;13.880;2022-12-18T04:02:08;2.10;;;1.90;;
11418;SDS011;32800;44.876;13.880;2022-12-18T04:04:34;3.33;;;1.83;;
11418;SDS011;32800;44.876;13.880;2022-12-18T04:07:01;2.00;;;1.80;;
11418;SDS011;32800;44.876;13.880;2022-12-18T04:09:27;2.10;;;1.90;;
11418;SDS011;32800;44.876;13.880;2022-12-18T04:11:52;2.80;;;2.00;;
11418;SDS011;32800;44.876;13.880;2022-12-18T04:14:18;2.60;;;2.13;;
11418;SDS011;32800;44.876;13.880;2022-12-18T04:16:43;2.30;;;1.97;;
11418;SDS011;32800;44.876;13.880;2022-12-18T04:19:09;2.53;;;2.00;;
11418;SDS011;32800;44.876;13.880;2022-12-18T04:21:34;2.30;;;2.10;;
11418;SDS011;32800;44.876;13.880;2022-12-18T04:24:00;2.07;;;1.87;;
11418;SDS011;32800;44.876;13.880;2022-12-18T04:26:25;1.97;;;1.83;;
11418;SDS011;32800;44.876;13.880;2022-12-18T04:28:51;2.70;;;2.50;;
11418;SDS011;32800;44.876;13.880;2022-12-18T04:31:16;2.13;;;1.90;;
11418;SDS011;32800;44.876;13.880;2022-12-18T04:33:42;1.97;;;1.87;;
11418;SDS011;32800;44.876;13.880;2022-12-18T04:36:07;2.07;;;1.93;;
11418;SDS011;32800;44.876;13.880;2022-12-18T04:38:33;1.77;;;1.60;;
11418;SDS011;32800;44.876;13.880;2022-12-18T04:40:59;2.10;;;1.90;;
11418;SDS011;32800;44.876;13.880;2022-12-18T04:43:24;2.10;;;1.90;;
11418;SDS011;32800;44.876;13.880;2022-12-18T04:45:50;1.93;;;1.83;;
11418;SDS011;32800;44.876;13.880;2022-12-18T04:48:15;1.70;;;1.60;;
11418;SDS011;32800;44.876;13.880;2022-12-18T04:50:41;2.20;;;2.00;;
11418;SDS011;32800;44.876;13.880;2022-12-18T04:53:06;2.00;;;1.90;;
11418;SDS011;32800;44.876;13.880;2022-12-18T04:55:32;2.00;;;1.80;;
11418;SDS011;32800;44.876;13.880;2022-12-18T04:57:57;2.87;;;2.40;;
11418;SDS011;32800;44.876;13.880;2022-12-18T05:00:23;2.00;;;1.80;;
11418;SDS011;32800;44.876;13.880;2022-12-18T05:02:48;2.10;;;1.90;;
11418;SDS011;32800;44.876;13.880;2022-12-18T05:05:14;2.00;;;1.90;;
11418;SDS011;32800;44.876;13.880;2022-12-18T05:07:39;3.00;;;1.90;;
11418;SDS011;32800;44.876;13.880;2022-12-18T05:10:06;2.43;;;2.13;;
11418;SDS011;32800;44.876;13.880;2022-12-18T05:12:32;2.27;;;2.00;;
11418;SDS011;32800;44.876;13.880;2022-12-18T05:14:58;2.40;;;2.00;;
11418;SDS011;32800;44.876;13.880;2022-12-18T05:17:23;2.30;;;2.03;;
11418;SDS011;32800;44.876;13.880;2022-12-18T05:19:49;2.20;;;2.00;;
11418;SDS011;32800;44.876;13.880;2022-12-18T05:22:14;2.07;;;1.80;;
11418;SDS011;32800;44.876;13.880;2022-12-18T05:24:40;2.50;;;2.30;;
11418;SDS011;32800;44.876;13.880;2022-12-18T05:27:05;1.97;;;1.87;;
11418;SDS011;32800;44.876;13.880;2022-12-18T05:29:31;2.13;;;1.90;;
11418;SDS011;32800;44.876;13.880;2022-12-18T05:31:56;2.10;;;2.00;;
11418;SDS011;32800;44.876;13.880;2022-12-18T05:34:22;1.90;;;1.80;;
11418;SDS011;32800;44.876;13.880;2022-12-18T05:36:47;1.97;;;1.87;;
11418;SDS011;32800;44.876;13.880;2022-12-18T05:39:13;2.27;;;1.97;;
11418;SDS011;32800;44.876;13.880;2022-12-18T05:41:39;2.07;;;1.87;;
11418;SDS011;32800;44.876;13.880;2022-12-18T05:44:04;2.20;;;2.00;;
11418;SDS011;32800;44.876;13.880;2022-12-18T05:46:30;1.93;;;1.83;;
11418;SDS011;32800;44.876;13.880;2022-12-18T05:48:58;2.03;;;1.93;;
11418;SDS011;32800;44.876;13.880;2022-12-18T05:51:24;1.97;;;1.83;;
11418;SDS011;32800;44.876;13.880;2022-12-18T05:53:50;2.03;;;1.83;;
11418;SDS011;32800;44.876;13.880;2022-12-18T05:56:16;2.20;;;2.00;;
11418;SDS011;32800;44.876;13.880;2022-12-18T05:58:43;2.00;;;1.80;;
11418;SDS011;32800;44.876;13.880;2022-12-18T06:01:14;1.83;;;1.73;;
11418;SDS011;32800;44.876;13.880;2022-12-18T06:03:41;2.10;;;1.90;;
11418;SDS011;32800;44.876;13.880;2022-12-18T06:06:23;2.43;;;1.97;;
11418;SDS011;32800;44.876;13.880;2022-12-18T06:08:50;3.10;;;2.10;;
11418;SDS011;32800;44.876;13.880;2022-12-18T06:11:20;2.30;;;2.10;;
11418;SDS011;32800;44.876;13.880;2022-12-18T06:13:51;2.13;;;2.00;;
11418;SDS011;32800;44.876;13.880;2022-12-18T06:16:17;2.00;;;1.90;;
11418;SDS011;32800;44.876;13.880;2022-12-18T06:18:44;1.93;;;1.80;;
11418;SDS011;32800;44.876;13.880;2022-12-18T06:21:09;1.93;;;1.83;;
11418;SDS011;32800;44.876;13.880;2022-12-18T06:23:35;2.10;;;1.90;;
11418;SDS011;32800;44.876;13.880;2022-12-18T06:26:07;2.13;;;1.93;;
11418;SDS011;32800;44.876;13.880;2022-12-18T06:28:34;2.00;;;1.80;;
11418;SDS011;32800;44.876;13.880;2022-12-18T06:31:00;2.53;;;2.10;;
11418;SDS011;32800;44.876;13.880;2022-12-18T06:33:26;2.03;;;1.83;;
11418;SDS011;32800;44.876;13.880;2022-12-18T06:35:52;2.67;;;2.20;;
11418;SDS011;32800;44.876;13.880;2022-12-18T06:38:17;2.20;;;2.00;;
11418;SDS011;32800;44.876;13.880;2022-12-18T06:40:43;2.10;;;1.90;;
11418;SDS011;32800;44.876;13.880;2022-12-18T06:43:08;2.00;;;1.80;;
11418;SDS011;32800;44.876;13.880;2022-12-18T06:45:34;2.20;;;2.00;;
11418;SDS011;32800;44.876;13.880;2022-12-18T06:47:59;2.17;;;1.97;;
11418;SDS011;32800;44.876;13.880;2022-12-18T06:50:25;2.30;;;2.10;;
11418;SDS011;32800;44.876;13.880;2022-12-18T06:52:50;1.80;;;1.70;;
11418;SDS011;32800;44.876;13.880;2022-12-18T06:55:16;2.40;;;2.20;;
11418;SDS011;32800;44.876;13.880;2022-12-18T06:57:42;2.17;;;1.97;;
11418;SDS011;32800;44.876;13.880;2022-12-18T07:00:07;2.20;;;2.00;;
11418;SDS011;32800;44.876;13.880;2022-12-18T07:02:35;2.00;;;1.90;;
11418;SDS011;32800;44.876;13.880;2022-12-18T07:05:00;2.20;;;2.00;;
11418;SDS011;32800;44.876;13.880;2022-12-18T07:07:26;1.80;;;1.70;;
11418;SDS011;32800;44.876;13.880;2022-12-18T07:09:52;2.23;;;2.03;;
11418;SDS011;32800;44.876;13.880;2022-12-18T07:12:17;2.10;;;1.90;;
11418;SDS011;32800;44.876;13.880;2022-12-18T07:14:43;2.10;;;1.90;;
11418;SDS011;32800;44.876;13.880;2022-12-18T07:17:09;2.47;;;2.27;;
11418;SDS011;32800;44.876;13.880;2022-12-18T07:19:34;1.90;;;1.80;;
11418;SDS011;32800;44.876;13.880;2022-12-18T07:22:00;2.60;;;2.10;;
11418;SDS011;32800;44.876;13.880;2022-12-18T07:24:25;2.23;;;2.03;;
11418;SDS011;32800;44.876;13.880;2022-12-18T07:26:51;2.33;;;2.13;;
11418;SDS011;32800;44.876;13.880;2022-12-18T07:29:17;2.40;;;2.20;;
11418;SDS011;32800;44.876;13.880;2022-12-18T07:31:42;2.10;;;1.90;;
11418;SDS011;32800;44.876;13.880;2022-12-18T07:34:11;1.93;;;1.80;;
11418;SDS011;32800;44.876;13.880;2022-12-18T07:36:37;2.30;;;2.10;;
11418;SDS011;32800;44.876;13.880;2022-12-18T07:39:03;2.27;;;2.07;;
11418;SDS011;32800;44.876;13.880;2022-12-18T07:41:28;2.00;;;1.90;;
11418;SDS011;32800;44.876;13.880;2022-12-18T07:43:54;2.00;;;1.90;;
11418;SDS011;32800;44.876;13.880;2022-12-18T07:46:19;2.03;;;1.80;;
11418;SDS011;32800;44.876;13.880;2022-12-18T07:48:45;3.27;;;2.10;;
11418;SDS011;32800;44.876;13.880;2022-12-18T07:51:12;1.80;;;1.70;;
11418;SDS011;32800;44.876;13.880;2022-12-18T07:53:38;2.33;;;2.00;;
11418;SDS011;32800;44.876;13.880;2022-12-18T07:56:05;3.40;;;1.77;;
11418;SDS011;32800;44.876;13.880;2022-12-18T07:58:33;2.80;;;2.20;;
11418;SDS011;32800;44.876;13.880;2022-12-18T08:01:06;2.20;;;2.00;;
11418;SDS011;32800;44.876;13.880;2022-12-18T08:03:33;2.40;;;2.20;;
11418;SDS011;32800;44.876;13.880;2022-12-18T08:06:02;2.30;;;2.10;;
11418;SDS011;32800;44.876;13.880;2022-12-18T08:08:29;2.10;;;1.90;;
11418;SDS011;32800;44.876;13.880;2022-12-18T08:10:55;2.13;;;1.93;;
11418;SDS011;32800;44.876;13.880;2022-12-18T08:13:21;2.40;;;2.20;;
11418;SDS011;32800;44.876;13.880;2022-12-18T08:15:54;2.20;;;2.00;;
11418;SDS011;32800;44.876;13.880;2022-12-18T08:18:24;2.83;;;2.20;;
11418;SDS011;32800;44.876;13.880;2022-12-18T08:20:50;2.13;;;2.00;;
11418;SDS011;32800;44.876;13.880;2022-12-18T08:23:15;2.30;;;1.90;;
11418;SDS011;32800;44.876;13.880;2022-12-18T08:25:41;2.60;;;2.20;;
11418;SDS011;32800;44.876;13.880;2022-12-18T08:28:06;2.50;;;2.30;;
11418;SDS011;32800;44.876;13.880;2022-12-18T08:30:32;2.70;;;2.00;;
11418;SDS011;32800;44.876;13.880;2022-12-18T08:32:57;2.37;;;2.10;;
11418;SDS011;32800;44.876;13.880;2022-12-18T08:35:23;2.20;;;2.00;;
11418;SDS011;32800;44.876;13.880;2022-12-18T08:37:49;2.37;;;2.17;;
11418;SDS011;32800;44.876;13.880;2022-12-18T08:40:15;2.53;;;2.30;;
11418;SDS011;32800;44.876;13.880;2022-12-18T08:42:40;2.27;;;2.07;;
11418;SDS011;32800;44.876;13.880;2022-12-18T08:45:24;2.53;;;2.10;;
11418;SDS011;32800;44.876;13.880;2022-12-18T08:47:51;2.80;;;2.30;;
11418;SDS011;32800;44.876;13.880;2022-12-18T08:50:16;2.40;;;2.10;;
11418;SDS011;32800;44.876;13.880;2022-12-18T08:52:42;3.13;;;2.30;;
11418;SDS011;32800;44.876;13.880;2022-12-18T08:55:08;2.50;;;2.20;;
11418;SDS011;32800;44.876;13.880;2022-12-18T08:57:34;2.37;;;2.17;;
11418;SDS011;32800;44.876;13.880;2022-12-18T08:59:59;2.60;;;2.40;;
11418;SDS011;32800;44.876;13.880;2022-12-18T09:02:25;2.40;;;2.20;;
11418;SDS011;32800;44.876;13.880;2022-12-18T09:04:50;2.50;;;2.10;;
11418;SDS011;32800;44.876;13.880;2022-12-18T09:07:16;2.43;;;2.20;;
11418;SDS011;32800;44.876;13.880;2022-12-18T09:09:41;3.03;;;2.57;;
11418;SDS011;32800;44.876;13.880;2022-12-18T09:12:15;2.57;;;2.20;;
11418;SDS011;32800;44.876;13.880;2022-12-18T09:14:41;2.80;;;2.50;;
11418;SDS011;32800;44.876;13.880;2022-12-18T09:17:07;2.80;;;2.50;;
11418;SDS011;32800;44.876;13.880;2022-12-18T09:19:33;2.37;;;2.17;;
11418;SDS011;32800;44.876;13.880;2022-12-18T09:21:58;4.83;;;2.30;;
11418;SDS011;32800;44.876;13.880;2022-12-18T09:24:24;2.53;;;2.33;;
11418;SDS011;32800;44.876;13.880;2022-12-18T09:26:52;2.60;;;2.40;;
11418;SDS011;32800;44.876;13.880;2022-12-18T09:29:22;3.53;;;2.60;;
11418;SDS011;32800;44.876;13.880;2022-12-18T09:31:48;2.70;;;2.40;;
11418;SDS011;32800;44.876;13.880;2022-12-18T09:34:14;3.17;;;2.47;;
11418;SDS011;32800;44.876;13.880;2022-12-18T09:36:40;3.57;;;2.67;;
11418;SDS011;32800;44.876;13.880;2022-12-18T09:39:06;2.57;;;2.37;;
11418;SDS011;32800;44.876;13.880;2022-12-18T09:41:33;2.50;;;2.30;;
11418;SDS011;32800;44.876;13.880;2022-12-18T09:44:19;2.73;;;2.53;;
11418;SDS011;32800;44.876;13.880;2022-12-18T09:46:53;2.77;;;2.40;;
11418;SDS011;32800;44.876;13.880;2022-12-18T09:49:33;3.60;;;2.50;;
11418;SDS011;32800;44.876;13.880;2022-12-18T09:52:11;2.93;;;2.63;;
11418;SDS011;32800;44.876;13.880;2022-12-18T09:54:40;3.90;;;3.20;;
11418;SDS011;32800;44.876;13.880;2022-12-18T09:57:06;2.90;;;2.60;;
11418;SDS011;32800;44.876;13.880;2022-12-18T09:59:38;4.00;;;2.80;;
11418;SDS011;32800;44.876;13.880;2022-12-18T10:04:55;3.50;;;3.20;;
11418;SDS011;32800;44.876;13.880;2022-12-18T10:10:18;3.57;;;2.70;;
11418;SDS011;32800;44.876;13.880;2022-12-18T10:13:12;4.20;;;3.37;;
11418;SDS011;32800;44.876;13.880;2022-12-18T10:21:23;3.33;;;3.03;;
11418;SDS011;32800;44.876;13.880;2022-12-18T10:27:12;2.80;;;2.60;;
11418;SDS011;32800;44.876;13.880;2022-12-18T10:29:40;3.57;;;2.83;;
11418;SDS011;32800;44.876;13.880;2022-12-18T10:32:07;3.57;;;3.27;;
11418;SDS011;32800;44.876;13.880;2022-12-18T10:34:38;3.80;;;3.17;;
11418;SDS011;32800;44.876;13.880;2022-12-18T10:37:04;4.03;;;3.57;;
11418;SDS011;32800;44.876;13.880;2022-12-18T10:39:31;3.27;;;2.93;;
11418;SDS011;32800;44.876;13.880;2022-12-18T10:44:42;3.03;;;2.73;;
11418;SDS011;32800;44.876;13.880;2022-12-18T10:47:11;4.20;;;2.70;;
11418;SDS011;32800;44.876;13.880;2022-12-18T10:49:42;3.20;;;2.70;;
11418;SDS011;32800;44.876;13.880;2022-12-18T10:52:22;3.33;;;3.03;;
11418;SDS011;32800;44.876;13.880;2022-12-18T10:54:50;4.40;;;3.30;;
11418;SDS011;32800;44.876;13.880;2022-12-18T10:57:36;3.83;;;3.43;;
11418;SDS011;32800;44.876;13.880;2022-12-18T11:02:52;3.70;;;2.90;;
11418;SDS011;32800;44.876;13.880;2022-12-18T11:07:50;3.50;;;3.20;;
11418;SDS011;32800;44.876;13.880;2022-12-18T11:10:19;3.10;;;2.70;;
11418;SDS011;32800;44.876;13.880;2022-12-18T11:12:46;3.10;;;2.80;;
11418;SDS011;32800;44.876;13.880;2022-12-18T11:15:19;3.20;;;2.90;;
11418;SDS011;32800;44.876;13.880;2022-12-18T11:17:50;3.13;;;2.77;;
11418;SDS011;32800;44.876;13.880;2022-12-18T11:20:20;3.30;;;3.00;;
11418;SDS011;32800;44.876;13.880;2022-12-18T11:23:10;3.50;;;3.20;;
11418;SDS011;32800;44.876;13.880;2022-12-18T11:25:37;7.00;;;3.70;;
11418;SDS011;32800;44.876;13.880;2022-12-18T11:30:36;4.50;;;4.10;;
11418;SDS011;32800;44.876;13.880;2022-12-18T11:38:23;5.57;;;4.97;;
11418;SDS011;32800;44.876;13.880;2022-12-18T11:44:58;8.70;;;5.23;;
11418;SDS011;32800;44.876;13.880;2022-12-18T11:50:20;6.27;;;5.30;;
11418;SDS011;32800;44.876;13.880;2022-12-18T11:52:49;5.95;;;5.25;;
11418;SDS011;32800;44.876;13.880;2022-12-18T11:55:16;5.70;;;5.07;;
11418;SDS011;32800;44.876;13.880;2022-12-18T11:57:52;7.15;;;5.18;;
11418;SDS011;32800;44.876;13.880;2022-12-18T12:00:24;6.38;;;5.07;;
11418;SDS011;32800;44.876;13.880;2022-12-18T12:02:57;7.30;;;4.87;;
11418;SDS011;32800;44.876;13.880;2022-12-18T12:14:09;5.70;;;4.87;;
11418;SDS011;32800;44.876;13.880;2022-12-18T12:24:53;5.60;;;4.40;;
11418;SDS011;32800;44.876;13.880;2022-12-18T12:38:15;8.97;;;4.77;;
11418;SDS011;32800;44.876;13.880;2022-12-18T12:41:15;6.37;;;4.77;;
11418;SDS011;32800;44.876;13.880;2022-12-18T12:43:56;6.37;;;4.70;;
11418;SDS011;32800;44.876;13.880;2022-12-18T12:46:23;8.23;;;4.20;;
11418;SDS011;32800;44.876;13.880;2022-12-18T12:48:51;5.53;;;4.27;;
11418;SDS011;32800;44.876;13.880;2022-12-18T12:51:22;6.83;;;4.57;;
11418;SDS011;32800;44.876;13.880;2022-12-18T12:53:54;6.73;;;4.20;;
11418;SDS011;32800;44.876;13.880;2022-12-18T12:56:21;10.83;;;4.50;;
11418;SDS011;32800;44.876;13.880;2022-12-18T12:58:57;6.13;;;4.17;;
11418;SDS011;32800;44.876;13.880;2022-12-18T13:01:38;5.07;;;4.17;;
11418;SDS011;32800;44.876;13.880;2022-12-18T13:04:19;7.23;;;4.20;;
11418;SDS011;32800;44.876;13.880;2022-12-18T13:06:53;4.93;;;4.33;;
11418;SDS011;32800;44.876;13.880;2022-12-18T13:09:30;4.30;;;3.57;;
11418;SDS011;32800;44.876;13.880;2022-12-18T13:12:01;4.83;;;4.07;;
11418;SDS011;32800;44.876;13.880;2022-12-18T13:14:52;4.93;;;4.03;;
11418;SDS011;32800;44.876;13.880;2022-12-18T13:20:02;5.97;;;4.20;;
11418;SDS011;32800;44.876;13.880;2022-12-18T13:22:30;5.07;;;4.30;;
11418;SDS011;32800;44.876;13.880;2022-12-18T13:24:58;6.73;;;4.00;;
11418;SDS011;32800;44.876;13.880;2022-12-18T13:43:41;3.93;;;3.50;;
11418;SDS011;32800;44.876;13.880;2022-12-18T13:48:52;4.93;;;3.63;;
11418;SDS011;32800;44.876;13.880;2022-12-18T13:51:22;5.40;;;3.70;;
11418;SDS011;32800;44.876;13.880;2022-12-18T13:53:55;5.60;;;3.77;;
11418;SDS011;32800;44.876;13.880;2022-12-18T13:56:25;5.23;;;3.90;;
11418;SDS011;32800;44.876;13.880;2022-12-18T13:59:26;5.93;;;4.23;;
11418;SDS011;32800;44.876;13.880;2022-12-18T14:06:50;5.57;;;3.83;;
11418;SDS011;32800;44.876;13.880;2022-12-18T14:09:20;7.23;;;3.80;;
11418;SDS011;32800;44.876;13.880;2022-12-18T14:11:49;8.83;;;3.60;;
11418;SDS011;32800;44.876;13.880;2022-12-18T14:14:16;7.47;;;4.10;;
11418;SDS011;32800;44.876;13.880;2022-12-18T14:16:43;4.70;;;3.47;;
11418;SDS011;32800;44.876;13.880;2022-12-18T14:19:12;6.73;;;3.60;;
11418;SDS011;32800;44.876;13.880;2022-12-18T14:21:46;6.07;;;3.80;;
11418;SDS011;32800;44.876;13.880;2022-12-18T14:24:15;5.60;;;3.90;;
11418;SDS011;32800;44.876;13.880;2022-12-18T14:26:41;6.00;;;3.70;;
11418;SDS011;32800;44.876;13.880;2022-12-18T14:29:41;6.07;;;3.70;;
11418;SDS011;32800;44.876;13.880;2022-12-18T14:34:39;7.43;;;3.83;;
11418;SDS011;32800;44.876;13.880;2022-12-18T14:37:04;6.37;;;3.77;;
11418;SDS011;32800;44.876;13.880;2022-12-18T14:39:30;5.27;;;3.80;;
11418;SDS011;32800;44.876;13.880;2022-12-18T14:41:55;7.00;;;3.87;;
11418;SDS011;32800;44.876;13.880;2022-12-18T14:44:21;5.03;;;4.00;;
11418;SDS011;32800;44.876;13.880;2022-12-18T14:46:48;4.70;;;3.57;;
11418;SDS011;32800;44.876;13.880;2022-12-18T14:49:19;5.50;;;3.67;;
11418;SDS011;32800;44.876;13.880;2022-12-18T14:51:59;6.77;;;3.67;;
11418;SDS011;32800;44.876;13.880;2022-12-18T14:54:27;5.70;;;3.40;;
11418;SDS011;32800;44.876;13.880;2022-12-18T14:57:01;6.63;;;3.80;;
11418;SDS011;32800;44.876;13.880;2022-12-18T14:59:46;4.83;;;3.67;;
11418;SDS011;32800;44.876;13.880;2022-12-18T15:04:43;7.17;;;3.87;;
11418;SDS011;32800;44.876;13.880;2022-12-18T15:18:03;5.10;;;3.43;;
11418;SDS011;32800;44.876;13.880;2022-12-18T15:20:33;6.47;;;3.53;;
11418;SDS011;32800;44.876;13.880;2022-12-18T15:25:58;5.67;;;3.97;;
11418;SDS011;32800;44.876;13.880;2022-12-18T15:31:02;4.90;;;3.67;;
11418;SDS011;32800;44.876;13.880;2022-12-18T15:33:32;4.40;;;3.43;;
11418;SDS011;32800;44.876;13.880;2022-12-18T15:36:00;6.40;;;3.93;;
11418;SDS011;32800;44.876;13.880;2022-12-18T15:38:30;5.50;;;3.90;;
11418;SDS011;32800;44.876;13.880;2022-12-18T15:40:56;4.93;;;3.53;;
11418;SDS011;32800;44.876;13.880;2022-12-18T15:43:22;4.83;;;3.83;;
11418;SDS011;32800;44.876;13.880;2022-12-18T15:46:18;3.90;;;3.50;;
11418;SDS011;32800;44.876;13.880;2022-12-18T15:48:45;5.87;;;3.80;;
11418;SDS011;32800;44.876;13.880;2022-12-18T15:51:33;6.20;;;4.00;;
11418;SDS011;32800;44.876;13.880;2022-12-18T15:53:58;4.80;;;3.70;;
11418;SDS011;32800;44.876;13.880;2022-12-18T15:56:25;4.90;;;4.10;;
11418;SDS011;32800;44.876;13.880;2022-12-18T15:59:10;9.73;;;3.60;;
11418;SDS011;32800;44.876;13.880;2022-12-18T16:01:37;4.83;;;3.90;;
11418;SDS011;32800;44.876;13.880;2022-12-18T16:04:03;5.30;;;4.07;;
11418;SDS011;32800;44.876;13.880;2022-12-18T16:06:28;5.20;;;3.70;;
11418;SDS011;32800;44.876;13.880;2022-12-18T16:08:54;3.70;;;3.30;;
11418;SDS011;32800;44.876;13.880;2022-12-18T16:11:29;6.27;;;4.10;;
11418;SDS011;32800;44.876;13.880;2022-12-18T16:16:57;6.47;;;4.27;;
11418;SDS011;32800;44.876;13.880;2022-12-18T16:19:24;4.40;;;3.87;;
11418;SDS011;32800;44.876;13.880;2022-12-18T16:21:51;6.27;;;3.60;;
11418;SDS011;32800;44.876;13.880;2022-12-18T16:24:18;4.60;;;3.43;;
11418;SDS011;32800;44.876;13.880;2022-12-18T16:26:46;4.63;;;3.57;;
11418;SDS011;32800;44.876;13.880;2022-12-18T16:29:12;5.23;;;3.90;;
11418;SDS011;32800;44.876;13.880;2022-12-18T16:31:38;5.37;;;3.70;;
11418;SDS011;32800;44.876;13.880;2022-12-18T16:36:56;5.70;;;3.83;;
11418;SDS011;32800;44.876;13.880;2022-12-18T16:39:25;5.90;;;3.43;;
11418;SDS011;32800;44.876;13.880;2022-12-18T16:41:51;5.67;;;3.70;;
11418;SDS011;32800;44.876;13.880;2022-12-18T16:44:17;6.10;;;3.80;;
11418;SDS011;32800;44.876;13.880;2022-12-18T16:46:43;4.97;;;3.83;;
11418;SDS011;32800;44.876;13.880;2022-12-18T16:49:15;3.67;;;3.33;;
11418;SDS011;32800;44.876;13.880;2022-12-18T16:51:41;4.90;;;3.63;;
11418;SDS011;32800;44.876;13.880;2022-12-18T16:54:09;5.53;;;3.77;;
11418;SDS011;32800;44.876;13.880;2022-12-18T16:56:35;5.40;;;3.77;;
11418;SDS011;32800;44.876;13.880;2022-12-18T16:59:01;7.50;;;3.90;;
11418;SDS011;32800;44.876;13.880;2022-12-18T17:01:28;11.07;;;4.57;;
11418;SDS011;32800;44.876;13.880;2022-12-18T17:04:01;7.20;;;4.40;;
11418;SDS011;32800;44.876;13.880;2022-12-18T17:06:34;8.33;;;4.43;;
11418;SDS011;32800;44.876;13.880;2022-12-18T17:09:06;12.00;;;5.00;;
11418;SDS011;32800;44.876;13.880;2022-12-18T17:11:34;11.73;;;5.10;;
11418;SDS011;32800;44.876;13.880;2022-12-18T17:14:07;13.23;;;5.80;;
11418;SDS011;32800;44.876;13.880;2022-12-18T17:16:36;11.10;;;5.90;;